Marchen Maersk — OUIY2 — position and weather

sailwx.info

Track history (hours):
 
Tides and Currents Weather Stations Pressure Air Temp Water Temp Dewpoint Dewpoint Depression Visibility Wind Speed Wind Dir Waves Ship Positions

Marchen Maersk

Last reported at 2014-Nov-21 02:30 UTC. Time now 2014-Nov-23 04:55 UTC.
Position N 38°19' W 009°44'.

Length 367 m; draft 13.2 m.

Type: Ship (hazmat cat A). MMSI: 220594000.

Date/timePositionNaut miles runAvg speedWind from/ knotsBaromVisibWave heightAir tempDewpointWater temp
2014-Nov-21 02:30N 38°19' W 009°44'1616.7
2014-Nov-21 01:33N 38°03' W 009°38'1716.8
2014-Nov-21 00:32N 37°47' W 009°33'1716.9
2014-Nov-20 23:33N 37°30' W 009°29'1816.7
2014-Nov-20 22:30N 37°13' W 009°24'3115.9
2014-Nov-20 20:33N 36°45' W 009°08'1616.4
2014-Nov-20 19:33N 36°40' W 008°49'1716.7
2014-Nov-20 18:33N 36°35' W 008°29'14417.3
2014-Nov-20 10:14N 35°58' W 005°36'1116.9
2014-Nov-20 09:33N 36°01' W 005°23'23620.8
2014-Nov-19 22:13N 36°38' W 000°33'1521.7
2014-Nov-19 21:33N 36°41' W 000°15'2222.0
2014-Nov-19 20:33N 36°44' E 000°12'2221.8
2014-Nov-19 19:33N 36°48' E 000°39'2221.7
2014-Nov-19 18:33N 36°51' E 001°06'2120.9
2014-Nov-19 17:33N 36°55' E 001°31'2020.2
2014-Nov-19 16:33N 36°57' E 001°56'2120.8
2014-Nov-19 15:33N 36°59' E 002°22'2120.9
2014-Nov-19 14:33N 37°02' E 002°48'2121.3
2014-Nov-19 13:33N 37°05' E 003°15'2121.0
2014-Nov-19 12:33N 37°08' E 003°41'2121.2
2014-Nov-19 11:33N 37°12' E 004°07'2121.7
2014-Nov-19 10:33N 37°15' E 004°34'2322.6
2014-Nov-19 09:33N 37°18' E 005°02'2420.7
2014-Nov-19 08:24N 37°20' E 005°32'2021.8
2014-Nov-19 07:28N 37°23' E 005°57'36120.8
2014-Nov-18 14:05N 36°44' E 013°27'1221.9
2014-Nov-18 13:33N 36°40' E 013°41'2221.9
2014-Nov-18 12:33N 36°34' E 014°06'2222.0
2014-Nov-18 11:33N 36°27' E 014°32'2221.6
2014-Nov-18 10:31N 36°20' E 014°59'34521.6
2014-Nov-17 18:32N 34°36' E 021°42'4521.3
2014-Nov-17 16:25N 34°22' E 022°34'  
Track history (hours):
 
Tides and Currents Weather Stations Pressure Air Temp Water Temp Dewpoint Dewpoint Depression Visibility Wind Speed Wind Dir Waves Ship Positions

Marchen Maersk

Last reported at 2014-Nov-21 02:30 UTC. Time now 2014-Nov-23 04:55 UTC.
Position N 38°19' W 009°44'.

Length 367 m; draft 13.2 m.

Type: Ship (hazmat cat A). MMSI: 220594000.

Date/timePositionNaut miles runAvg speedWind from/ knotsBaromVisibWave heightAir tempDewpointWater temp
2014-Nov-21 02:30N 38°19' W 009°44'1616.7
2014-Nov-21 01:33N 38°03' W 009°38'1716.8
2014-Nov-21 00:32N 37°47' W 009°33'1716.9
2014-Nov-20 23:33N 37°30' W 009°29'1816.7
2014-Nov-20 22:30N 37°13' W 009°24'3115.9
2014-Nov-20 20:33N 36°45' W 009°08'1616.4
2014-Nov-20 19:33N 36°40' W 008°49'1716.7
2014-Nov-20 18:33N 36°35' W 008°29'14417.3
2014-Nov-20 10:14N 35°58' W 005°36'1116.9
2014-Nov-20 09:33N 36°01' W 005°23'23620.8
2014-Nov-19 22:13N 36°38' W 000°33'1521.7
2014-Nov-19 21:33N 36°41' W 000°15'2222.0
2014-Nov-19 20:33N 36°44' E 000°12'2221.8
2014-Nov-19 19:33N 36°48' E 000°39'2221.7
2014-Nov-19 18:33N 36°51' E 001°06'2120.9
2014-Nov-19 17:33N 36°55' E 001°31'2020.2
2014-Nov-19 16:33N 36°57' E 001°56'2120.8
2014-Nov-19 15:33N 36°59' E 002°22'2120.9
2014-Nov-19 14:33N 37°02' E 002°48'2121.3
2014-Nov-19 13:33N 37°05' E 003°15'2121.0
2014-Nov-19 12:33N 37°08' E 003°41'2121.2
2014-Nov-19 11:33N 37°12' E 004°07'2121.7
2014-Nov-19 10:33N 37°15' E 004°34'2322.6
2014-Nov-19 09:33N 37°18' E 005°02'2420.7
2014-Nov-19 08:24N 37°20' E 005°32'2021.8
2014-Nov-19 07:28N 37°23' E 005°57'36120.8
2014-Nov-18 14:05N 36°44' E 013°27'1221.9
2014-Nov-18 13:33N 36°40' E 013°41'2221.9
2014-Nov-18 12:33N 36°34' E 014°06'2222.0
2014-Nov-18 11:33N 36°27' E 014°32'2221.6
2014-Nov-18 10:31N 36°20' E 014°59'34521.6
2014-Nov-17 18:32N 34°36' E 021°42'4521.3
2014-Nov-17 16:25N 34°22' E 022°34'  

Dump ship's entire track history